sensor_id;sensor_type;location;lat;lon;timestamp;P1;durP1;ratioP1;P2;durP2;ratioP2
44248;SDS011;29923;48.718;9.272;2022-08-19T00:02:21;17.27;;;12.80;;
44248;SDS011;29923;48.718;9.272;2022-08-19T00:04:46;14.55;;;12.00;;
44248;SDS011;29923;48.718;9.272;2022-08-19T00:07:13;15.98;;;12.68;;
44248;SDS011;29923;48.718;9.272;2022-08-19T00:09:38;15.57;;;13.45;;
44248;SDS011;29923;48.718;9.272;2022-08-19T00:12:04;16.85;;;13.93;;
44248;SDS011;29923;48.718;9.272;2022-08-19T00:14:29;17.85;;;13.95;;
44248;SDS011;29923;48.718;9.272;2022-08-19T00:16:56;16.13;;;13.13;;
44248;SDS011;29923;48.718;9.272;2022-08-19T00:19:21;22.83;;;13.50;;
44248;SDS011;29923;48.718;9.272;2022-08-19T00:21:48;16.67;;;13.45;;
44248;SDS011;29923;48.718;9.272;2022-08-19T00:24:13;21.63;;;16.52;;
44248;SDS011;29923;48.718;9.272;2022-08-19T00:26:39;15.48;;;13.35;;
44248;SDS011;29923;48.718;9.272;2022-08-19T00:29:06;17.55;;;13.20;;
44248;SDS011;29923;48.718;9.272;2022-08-19T00:31:33;14.90;;;12.95;;
44248;SDS011;29923;48.718;9.272;2022-08-19T00:33:58;25.50;;;13.65;;
44248;SDS011;29923;48.718;9.272;2022-08-19T00:36:24;15.15;;;13.38;;
44248;SDS011;29923;48.718;9.272;2022-08-19T00:38:49;17.00;;;14.05;;
44248;SDS011;29923;48.718;9.272;2022-08-19T00:41:17;18.90;;;14.95;;
44248;SDS011;29923;48.718;9.272;2022-08-19T00:43:56;25.63;;;22.88;;
44248;SDS011;29923;48.718;9.272;2022-08-19T00:46:27;17.60;;;14.70;;
44248;SDS011;29923;48.718;9.272;2022-08-19T00:48:53;15.85;;;14.15;;
44248;SDS011;29923;48.718;9.272;2022-08-19T00:51:19;19.65;;;13.82;;
44248;SDS011;29923;48.718;9.272;2022-08-19T00:53:44;17.27;;;12.90;;
44248;SDS011;29923;48.718;9.272;2022-08-19T00:56:09;16.63;;;13.70;;
44248;SDS011;29923;48.718;9.272;2022-08-19T00:58:35;18.10;;;13.57;;
44248;SDS011;29923;48.718;9.272;2022-08-19T01:01:01;15.98;;;14.02;;
44248;SDS011;29923;48.718;9.272;2022-08-19T01:03:28;21.65;;;14.75;;
44248;SDS011;29923;48.718;9.272;2022-08-19T01:05:54;17.98;;;15.38;;
44248;SDS011;29923;48.718;9.272;2022-08-19T01:08:20;21.13;;;15.30;;
44248;SDS011;29923;48.718;9.272;2022-08-19T01:10:47;16.85;;;12.93;;
44248;SDS011;29923;48.718;9.272;2022-08-19T01:13:15;22.45;;;15.43;;
44248;SDS011;29923;48.718;9.272;2022-08-19T01:15:43;21.08;;;14.60;;
44248;SDS011;29923;48.718;9.272;2022-08-19T01:18:11;25.58;;;15.32;;
44248;SDS011;29923;48.718;9.272;2022-08-19T01:20:38;18.23;;;14.18;;
44248;SDS011;29923;48.718;9.272;2022-08-19T01:23:05;17.10;;;14.13;;
44248;SDS011;29923;48.718;9.272;2022-08-19T01:25:32;19.33;;;15.07;;
44248;SDS011;29923;48.718;9.272;2022-08-19T01:28:00;17.67;;;14.88;;
44248;SDS011;29923;48.718;9.272;2022-08-19T01:30:27;18.73;;;14.52;;
44248;SDS011;29923;48.718;9.272;2022-08-19T01:32:55;20.45;;;14.65;;
44248;SDS011;29923;48.718;9.272;2022-08-19T01:35:21;20.10;;;13.75;;
44248;SDS011;29923;48.718;9.272;2022-08-19T01:37:53;18.15;;;14.27;;
44248;SDS011;29923;48.718;9.272;2022-08-19T01:40:21;18.42;;;14.45;;
44248;SDS011;29923;48.718;9.272;2022-08-19T01:42:48;21.88;;;14.23;;
44248;SDS011;29923;48.718;9.272;2022-08-19T01:45:14;20.02;;;14.55;;
44248;SDS011;29923;48.718;9.272;2022-08-19T01:47:40;19.25;;;14.50;;
44248;SDS011;29923;48.718;9.272;2022-08-19T01:50:06;15.80;;;13.70;;
44248;SDS011;29923;48.718;9.272;2022-08-19T01:52:34;18.75;;;14.38;;
44248;SDS011;29923;48.718;9.272;2022-08-19T01:55:01;22.02;;;15.35;;
44248;SDS011;29923;48.718;9.272;2022-08-19T01:57:26;18.58;;;14.63;;
44248;SDS011;29923;48.718;9.272;2022-08-19T01:59:52;18.17;;;14.77;;
44248;SDS011;29923;48.718;9.272;2022-08-19T02:02:17;20.67;;;14.93;;
44248;SDS011;29923;48.718;9.272;2022-08-19T02:04:42;17.02;;;13.65;;
44248;SDS011;29923;48.718;9.272;2022-08-19T02:07:08;19.55;;;14.50;;
44248;SDS011;29923;48.718;9.272;2022-08-19T02:09:33;15.88;;;13.90;;
44248;SDS011;29923;48.718;9.272;2022-08-19T02:11:59;24.10;;;15.68;;
44248;SDS011;29923;48.718;9.272;2022-08-19T02:14:25;20.50;;;16.52;;
44248;SDS011;29923;48.718;9.272;2022-08-19T02:16:50;23.90;;;16.00;;
44248;SDS011;29923;48.718;9.272;2022-08-19T02:19:15;19.67;;;16.00;;
44248;SDS011;29923;48.718;9.272;2022-08-19T02:21:41;21.38;;;15.60;;
44248;SDS011;29923;48.718;9.272;2022-08-19T02:24:06;23.60;;;16.70;;
44248;SDS011;29923;48.718;9.272;2022-08-19T02:26:32;19.33;;;15.52;;
44248;SDS011;29923;48.718;9.272;2022-08-19T02:28:58;18.75;;;15.88;;
44248;SDS011;29923;48.718;9.272;2022-08-19T02:31:24;19.88;;;15.82;;
44248;SDS011;29923;48.718;9.272;2022-08-19T02:33:50;20.92;;;15.55;;
44248;SDS011;29923;48.718;9.272;2022-08-19T02:36:17;24.13;;;16.92;;
44248;SDS011;29923;48.718;9.272;2022-08-19T02:38:43;20.90;;;16.50;;
44248;SDS011;29923;48.718;9.272;2022-08-19T02:41:18;23.73;;;17.02;;
44248;SDS011;29923;48.718;9.272;2022-08-19T02:43:45;23.17;;;17.88;;
44248;SDS011;29923;48.718;9.272;2022-08-19T02:46:15;21.77;;;16.30;;
44248;SDS011;29923;48.718;9.272;2022-08-19T02:48:49;21.75;;;16.92;;
44248;SDS011;29923;48.718;9.272;2022-08-19T02:51:18;23.80;;;17.55;;
44248;SDS011;29923;48.718;9.272;2022-08-19T02:53:45;24.52;;;17.70;;
44248;SDS011;29923;48.718;9.272;2022-08-19T02:56:11;24.95;;;17.80;;
44248;SDS011;29923;48.718;9.272;2022-08-19T02:58:36;25.15;;;18.80;;
44248;SDS011;29923;48.718;9.272;2022-08-19T03:01:02;26.33;;;19.10;;
44248;SDS011;29923;48.718;9.272;2022-08-19T03:03:27;24.75;;;17.90;;
44248;SDS011;29923;48.718;9.272;2022-08-19T03:06:02;27.30;;;18.92;;
44248;SDS011;29923;48.718;9.272;2022-08-19T03:08:29;24.33;;;18.83;;
44248;SDS011;29923;48.718;9.272;2022-08-19T03:10:55;26.05;;;19.17;;
44248;SDS011;29923;48.718;9.272;2022-08-19T03:13:20;26.27;;;19.85;;
44248;SDS011;29923;48.718;9.272;2022-08-19T03:15:46;25.65;;;19.48;;
44248;SDS011;29923;48.718;9.272;2022-08-19T03:18:12;28.60;;;20.02;;
44248;SDS011;29923;48.718;9.272;2022-08-19T03:20:42;27.48;;;19.40;;
44248;SDS011;29923;48.718;9.272;2022-08-19T03:23:14;26.33;;;20.75;;
44248;SDS011;29923;48.718;9.272;2022-08-19T03:25:41;26.83;;;21.13;;
44248;SDS011;29923;48.718;9.272;2022-08-19T03:28:11;28.17;;;21.65;;
44248;SDS011;29923;48.718;9.272;2022-08-19T03:30:38;28.95;;;21.67;;
44248;SDS011;29923;48.718;9.272;2022-08-19T03:33:08;30.83;;;21.98;;
44248;SDS011;29923;48.718;9.272;2022-08-19T03:35:33;29.48;;;22.00;;
44248;SDS011;29923;48.718;9.272;2022-08-19T03:38:01;29.65;;;22.33;;
44248;SDS011;29923;48.718;9.272;2022-08-19T03:40:28;32.10;;;22.65;;
44248;SDS011;29923;48.718;9.272;2022-08-19T03:42:55;35.67;;;23.58;;
44248;SDS011;29923;48.718;9.272;2022-08-19T03:45:21;29.80;;;22.20;;
44248;SDS011;29923;48.718;9.272;2022-08-19T03:47:46;29.85;;;22.58;;
44248;SDS011;29923;48.718;9.272;2022-08-19T03:50:11;31.60;;;23.40;;
44248;SDS011;29923;48.718;9.272;2022-08-19T03:52:37;30.70;;;22.63;;
44248;SDS011;29923;48.718;9.272;2022-08-19T03:55:02;30.73;;;23.05;;
44248;SDS011;29923;48.718;9.272;2022-08-19T03:57:28;26.55;;;20.92;;
44248;SDS011;29923;48.718;9.272;2022-08-19T03:59:53;30.15;;;22.38;;
44248;SDS011;29923;48.718;9.272;2022-08-19T04:02:19;28.95;;;22.70;;
44248;SDS011;29923;48.718;9.272;2022-08-19T04:04:44;42.85;;;24.80;;
44248;SDS011;29923;48.718;9.272;2022-08-19T04:07:10;34.92;;;24.70;;
44248;SDS011;29923;48.718;9.272;2022-08-19T04:09:38;28.52;;;22.73;;
44248;SDS011;29923;48.718;9.272;2022-08-19T04:12:04;32.72;;;23.65;;
44248;SDS011;29923;48.718;9.272;2022-08-19T04:14:30;31.60;;;22.88;;
44248;SDS011;29923;48.718;9.272;2022-08-19T04:16:57;29.73;;;23.52;;
44248;SDS011;29923;48.718;9.272;2022-08-19T04:19:23;30.25;;;22.98;;
44248;SDS011;29923;48.718;9.272;2022-08-19T04:21:50;32.40;;;23.65;;
44248;SDS011;29923;48.718;9.272;2022-08-19T04:24:16;36.60;;;26.17;;
44248;SDS011;29923;48.718;9.272;2022-08-19T04:26:43;30.88;;;23.50;;
44248;SDS011;29923;48.718;9.272;2022-08-19T04:29:12;31.55;;;23.55;;
44248;SDS011;29923;48.718;9.272;2022-08-19T04:31:40;32.33;;;23.67;;
44248;SDS011;29923;48.718;9.272;2022-08-19T04:34:07;31.98;;;24.05;;
44248;SDS011;29923;48.718;9.272;2022-08-19T04:36:36;36.28;;;23.20;;
44248;SDS011;29923;48.718;9.272;2022-08-19T04:39:04;32.97;;;24.50;;
44248;SDS011;29923;48.718;9.272;2022-08-19T04:41:32;35.72;;;25.13;;
44248;SDS011;29923;48.718;9.272;2022-08-19T04:44:16;36.42;;;25.60;;
44248;SDS011;29923;48.718;9.272;2022-08-19T04:46:43;32.75;;;23.40;;
44248;SDS011;29923;48.718;9.272;2022-08-19T04:49:09;36.60;;;25.48;;
44248;SDS011;29923;48.718;9.272;2022-08-19T04:51:35;35.03;;;24.38;;
44248;SDS011;29923;48.718;9.272;2022-08-19T04:54:01;30.70;;;23.25;;
44248;SDS011;29923;48.718;9.272;2022-08-19T04:56:26;34.08;;;24.00;;
44248;SDS011;29923;48.718;9.272;2022-08-19T04:58:53;38.83;;;25.40;;
44248;SDS011;29923;48.718;9.272;2022-08-19T05:01:20;32.10;;;23.85;;
44248;SDS011;29923;48.718;9.272;2022-08-19T05:03:50;38.03;;;24.42;;
44248;SDS011;29923;48.718;9.272;2022-08-19T05:06:16;36.58;;;27.25;;
44248;SDS011;29923;48.718;9.272;2022-08-19T05:08:44;32.85;;;24.75;;
44248;SDS011;29923;48.718;9.272;2022-08-19T05:11:11;30.92;;;24.50;;
44248;SDS011;29923;48.718;9.272;2022-08-19T05:13:38;37.10;;;24.88;;
44248;SDS011;29923;48.718;9.272;2022-08-19T05:16:04;34.17;;;24.95;;
44248;SDS011;29923;48.718;9.272;2022-08-19T05:18:30;31.40;;;23.88;;
44248;SDS011;29923;48.718;9.272;2022-08-19T05:21:15;31.83;;;24.35;;
44248;SDS011;29923;48.718;9.272;2022-08-19T05:24:00;34.97;;;24.98;;
44248;SDS011;29923;48.718;9.272;2022-08-19T05:26:27;32.45;;;24.08;;
44248;SDS011;29923;48.718;9.272;2022-08-19T05:28:52;30.65;;;25.08;;
44248;SDS011;29923;48.718;9.272;2022-08-19T05:31:18;31.98;;;24.33;;
44248;SDS011;29923;48.718;9.272;2022-08-19T05:33:44;35.55;;;25.48;;
44248;SDS011;29923;48.718;9.272;2022-08-19T05:36:09;34.65;;;27.63;;
44248;SDS011;29923;48.718;9.272;2022-08-19T05:38:35;34.08;;;25.83;;
44248;SDS011;29923;48.718;9.272;2022-08-19T05:41:01;31.25;;;24.30;;
44248;SDS011;29923;48.718;9.272;2022-08-19T05:43:31;41.13;;;25.10;;
44248;SDS011;29923;48.718;9.272;2022-08-19T05:45:56;33.22;;;24.55;;
44248;SDS011;29923;48.718;9.272;2022-08-19T05:48:22;34.58;;;24.45;;
44248;SDS011;29923;48.718;9.272;2022-08-19T05:50:47;32.67;;;24.60;;
44248;SDS011;29923;48.718;9.272;2022-08-19T05:53:15;31.98;;;23.67;;
44248;SDS011;29923;48.718;9.272;2022-08-19T05:55:41;32.85;;;25.27;;
44248;SDS011;29923;48.718;9.272;2022-08-19T05:58:07;45.85;;;36.40;;
44248;SDS011;29923;48.718;9.272;2022-08-19T06:00:32;34.50;;;24.77;;
44248;SDS011;29923;48.718;9.272;2022-08-19T06:02:58;30.10;;;24.10;;
44248;SDS011;29923;48.718;9.272;2022-08-19T06:05:28;31.10;;;22.92;;
44248;SDS011;29923;48.718;9.272;2022-08-19T06:07:56;34.25;;;24.63;;
44248;SDS011;29923;48.718;9.272;2022-08-19T06:10:22;34.75;;;24.30;;
44248;SDS011;29923;48.718;9.272;2022-08-19T06:12:48;34.63;;;24.48;;
44248;SDS011;29923;48.718;9.272;2022-08-19T06:15:14;33.35;;;26.02;;
44248;SDS011;29923;48.718;9.272;2022-08-19T06:17:39;33.17;;;23.83;;
44248;SDS011;29923;48.718;9.272;2022-08-19T06:20:07;32.38;;;25.02;;
44248;SDS011;29923;48.718;9.272;2022-08-19T06:22:42;34.40;;;25.08;;
44248;SDS011;29923;48.718;9.272;2022-08-19T06:25:09;38.22;;;26.30;;
44248;SDS011;29923;48.718;9.272;2022-08-19T06:27:35;30.85;;;24.42;;
44248;SDS011;29923;48.718;9.272;2022-08-19T06:30:01;38.95;;;28.00;;
44248;SDS011;29923;48.718;9.272;2022-08-19T06:32:28;35.70;;;25.58;;
44248;SDS011;29923;48.718;9.272;2022-08-19T06:34:53;36.92;;;27.23;;
44248;SDS011;29923;48.718;9.272;2022-08-19T06:37:19;34.58;;;25.75;;
44248;SDS011;29923;48.718;9.272;2022-08-19T06:39:46;33.65;;;26.23;;
44248;SDS011;29923;48.718;9.272;2022-08-19T06:42:12;35.03;;;26.70;;
44248;SDS011;29923;48.718;9.272;2022-08-19T06:44:41;35.47;;;26.60;;
44248;SDS011;29923;48.718;9.272;2022-08-19T06:47:08;32.85;;;25.30;;
44248;SDS011;29923;48.718;9.272;2022-08-19T06:49:36;33.60;;;25.30;;
44248;SDS011;29923;48.718;9.272;2022-08-19T06:52:02;35.72;;;25.50;;
44248;SDS011;29923;48.718;9.272;2022-08-19T06:54:28;33.88;;;25.95;;
44248;SDS011;29923;48.718;9.272;2022-08-19T06:56:57;36.28;;;30.15;;
44248;SDS011;29923;48.718;9.272;2022-08-19T06:59:24;34.17;;;26.23;;
44248;SDS011;29923;48.718;9.272;2022-08-19T07:01:53;40.15;;;25.33;;
44248;SDS011;29923;48.718;9.272;2022-08-19T07:04:20;37.55;;;26.48;;
44248;SDS011;29923;48.718;9.272;2022-08-19T07:06:47;35.20;;;25.60;;
44248;SDS011;29923;48.718;9.272;2022-08-19T07:09:14;35.90;;;27.02;;
44248;SDS011;29923;48.718;9.272;2022-08-19T07:11:44;38.67;;;26.98;;
44248;SDS011;29923;48.718;9.272;2022-08-19T07:14:11;34.45;;;25.30;;
44248;SDS011;29923;48.718;9.272;2022-08-19T07:16:37;31.83;;;25.25;;
44248;SDS011;29923;48.718;9.272;2022-08-19T07:19:02;37.55;;;29.50;;
44248;SDS011;29923;48.718;9.272;2022-08-19T07:21:28;33.45;;;26.80;;
44248;SDS011;29923;48.718;9.272;2022-08-19T07:23:54;36.75;;;26.08;;
44248;SDS011;29923;48.718;9.272;2022-08-19T07:26:23;35.53;;;27.08;;
44248;SDS011;29923;48.718;9.272;2022-08-19T07:28:51;34.53;;;27.02;;
44248;SDS011;29923;48.718;9.272;2022-08-19T07:31:17;37.30;;;29.67;;
44248;SDS011;29923;48.718;9.272;2022-08-19T07:33:45;39.92;;;27.77;;
44248;SDS011;29923;48.718;9.272;2022-08-19T07:36:12;34.67;;;27.23;;
44248;SDS011;29923;48.718;9.272;2022-08-19T07:38:39;32.75;;;24.95;;
44248;SDS011;29923;48.718;9.272;2022-08-19T07:41:07;34.55;;;26.60;;
44248;SDS011;29923;48.718;9.272;2022-08-19T07:43:35;32.58;;;26.33;;
44248;SDS011;29923;48.718;9.272;2022-08-19T07:46:01;34.95;;;27.45;;
44248;SDS011;29923;48.718;9.272;2022-08-19T07:48:27;34.63;;;26.00;;
44248;SDS011;29923;48.718;9.272;2022-08-19T07:50:58;37.10;;;27.88;;
44248;SDS011;29923;48.718;9.272;2022-08-19T07:53:27;34.83;;;26.35;;
44248;SDS011;29923;48.718;9.272;2022-08-19T07:55:52;38.17;;;26.83;;
44248;SDS011;29923;48.718;9.272;2022-08-19T07:58:18;37.78;;;29.88;;
44248;SDS011;29923;48.718;9.272;2022-08-19T08:00:46;43.05;;;30.60;;
44248;SDS011;29923;48.718;9.272;2022-08-19T08:03:13;35.90;;;27.58;;
44248;SDS011;29923;48.718;9.272;2022-08-19T08:05:40;36.38;;;26.90;;
44248;SDS011;29923;48.718;9.272;2022-08-19T08:11:17;36.95;;;27.83;;
44248;SDS011;29923;48.718;9.272;2022-08-19T08:13:43;36.42;;;26.65;;
44248;SDS011;29923;48.718;9.272;2022-08-19T08:16:09;36.28;;;27.27;;
44248;SDS011;29923;48.718;9.272;2022-08-19T08:18:34;34.42;;;27.20;;
44248;SDS011;29923;48.718;9.272;2022-08-19T08:21:06;35.97;;;27.77;;
44248;SDS011;29923;48.718;9.272;2022-08-19T08:23:32;40.03;;;29.73;;
44248;SDS011;29923;48.718;9.272;2022-08-19T08:25:58;36.85;;;28.63;;
44248;SDS011;29923;48.718;9.272;2022-08-19T08:28:24;38.72;;;27.52;;
44248;SDS011;29923;48.718;9.272;2022-08-19T08:30:50;38.53;;;27.30;;
44248;SDS011;29923;48.718;9.272;2022-08-19T08:33:17;33.25;;;26.30;;
44248;SDS011;29923;48.718;9.272;2022-08-19T08:35:44;37.25;;;28.08;;
44248;SDS011;29923;48.718;9.272;2022-08-19T08:38:10;37.03;;;27.00;;
44248;SDS011;29923;48.718;9.272;2022-08-19T08:40:44;35.67;;;26.17;;
44248;SDS011;29923;48.718;9.272;2022-08-19T08:43:54;35.05;;;25.33;;
44248;SDS011;29923;48.718;9.272;2022-08-19T08:46:15;38.50;;;26.23;;
44248;SDS011;29923;48.718;9.272;2022-08-19T08:49:23;35.65;;;25.50;;
44248;SDS011;29923;48.718;9.272;2022-08-19T08:52:04;40.67;;;30.25;;
44248;SDS011;29923;48.718;9.272;2022-08-19T08:54:40;37.85;;;29.00;;
44248;SDS011;29923;48.718;9.272;2022-08-19T08:57:19;32.60;;;26.38;;
44248;SDS011;29923;48.718;9.272;2022-08-19T08:59:54;34.25;;;26.15;;
44248;SDS011;29923;48.718;9.272;2022-08-19T09:02:21;38.28;;;26.85;;
44248;SDS011;29923;48.718;9.272;2022-08-19T09:04:46;34.75;;;24.52;;
44248;SDS011;29923;48.718;9.272;2022-08-19T09:10:21;31.92;;;24.85;;
44248;SDS011;29923;48.718;9.272;2022-08-19T09:13:21;35.70;;;25.10;;
44248;SDS011;29923;48.718;9.272;2022-08-19T09:16:10;31.60;;;24.50;;
44248;SDS011;29923;48.718;9.272;2022-08-19T09:19:01;36.22;;;25.70;;
44248;SDS011;29923;48.718;9.272;2022-08-19T09:21:26;36.35;;;24.48;;
44248;SDS011;29923;48.718;9.272;2022-08-19T09:23:52;32.05;;;24.48;;
44248;SDS011;29923;48.718;9.272;2022-08-19T09:26:20;32.25;;;24.30;;
44248;SDS011;29923;48.718;9.272;2022-08-19T09:28:47;37.60;;;25.48;;
44248;SDS011;29923;48.718;9.272;2022-08-19T09:31:16;34.17;;;25.13;;
44248;SDS011;29923;48.718;9.272;2022-08-19T09:33:47;34.33;;;26.73;;
44248;SDS011;29923;48.718;9.272;2022-08-19T09:36:13;39.25;;;29.60;;
44248;SDS011;29923;48.718;9.272;2022-08-19T09:38:40;37.20;;;25.77;;
44248;SDS011;29923;48.718;9.272;2022-08-19T09:41:07;29.98;;;24.45;;
44248;SDS011;29923;48.718;9.272;2022-08-19T09:43:43;32.78;;;22.35;;
44248;SDS011;29923;48.718;9.272;2022-08-19T09:46:10;33.08;;;25.42;;
44248;SDS011;29923;48.718;9.272;2022-08-19T09:48:36;33.75;;;22.55;;
44248;SDS011;29923;48.718;9.272;2022-08-19T09:51:12;31.85;;;23.15;;
44248;SDS011;29923;48.718;9.272;2022-08-19T09:53:43;39.10;;;24.52;;
44248;SDS011;29923;48.718;9.272;2022-08-19T09:56:10;36.58;;;24.42;;
44248;SDS011;29923;48.718;9.272;2022-08-19T09:58:36;33.72;;;24.60;;
44248;SDS011;29923;48.718;9.272;2022-08-19T10:01:02;31.83;;;23.23;;
44248;SDS011;29923;48.718;9.272;2022-08-19T10:03:29;40.15;;;33.80;;
44248;SDS011;29923;48.718;9.272;2022-08-19T10:05:56;32.13;;;25.75;;
44248;SDS011;29923;48.718;9.272;2022-08-19T10:08:24;31.95;;;23.30;;
44248;SDS011;29923;48.718;9.272;2022-08-19T10:10:50;31.38;;;22.17;;
44248;SDS011;29923;48.718;9.272;2022-08-19T10:13:17;32.85;;;24.38;;
44248;SDS011;29923;48.718;9.272;2022-08-19T10:15:47;29.55;;;22.42;;
44248;SDS011;29923;48.718;9.272;2022-08-19T10:18:15;31.05;;;23.42;;
44248;SDS011;29923;48.718;9.272;2022-08-19T10:20:42;30.75;;;23.50;;
44248;SDS011;29923;48.718;9.272;2022-08-19T10:23:08;30.77;;;22.77;;
44248;SDS011;29923;48.718;9.272;2022-08-19T10:25:34;29.20;;;21.48;;
44248;SDS011;29923;48.718;9.272;2022-08-19T10:27:59;31.20;;;23.65;;
44248;SDS011;29923;48.718;9.272;2022-08-19T10:30:25;27.85;;;22.70;;
44248;SDS011;29923;48.718;9.272;2022-08-19T10:32:50;28.17;;;22.75;;
44248;SDS011;29923;48.718;9.272;2022-08-19T10:35:15;32.58;;;22.98;;
44248;SDS011;29923;48.718;9.272;2022-08-19T10:37:42;30.67;;;23.25;;
44248;SDS011;29923;48.718;9.272;2022-08-19T10:40:07;29.58;;;22.27;;
44248;SDS011;29923;48.718;9.272;2022-08-19T10:42:35;33.67;;;21.48;;
44248;SDS011;29923;48.718;9.272;2022-08-19T10:45:01;34.83;;;23.33;;
44248;SDS011;29923;48.718;9.272;2022-08-19T10:47:27;32.67;;;22.42;;
44248;SDS011;29923;48.718;9.272;2022-08-19T10:49:53;29.33;;;22.00;;
44248;SDS011;29923;48.718;9.272;2022-08-19T10:52:39;29.13;;;21.92;;
44248;SDS011;29923;48.718;9.272;2022-08-19T10:55:06;29.27;;;22.85;;
44248;SDS011;29923;48.718;9.272;2022-08-19T10:57:50;30.83;;;21.58;;
44248;SDS011;29923;48.718;9.272;2022-08-19T11:00:17;33.05;;;25.13;;
44248;SDS011;29923;48.718;9.272;2022-08-19T11:02:43;26.83;;;22.80;;
44248;SDS011;29923;48.718;9.272;2022-08-19T11:05:08;29.65;;;22.67;;
44248;SDS011;29923;48.718;9.272;2022-08-19T11:07:40;36.03;;;25.13;;
44248;SDS011;29923;48.718;9.272;2022-08-19T11:10:09;30.58;;;24.10;;
44248;SDS011;29923;48.718;9.272;2022-08-19T11:12:36;41.20;;;31.02;;
44248;SDS011;29923;48.718;9.272;2022-08-19T11:15:04;38.90;;;29.45;;
44248;SDS011;29923;48.718;9.272;2022-08-19T11:17:30;36.75;;;27.42;;
44248;SDS011;29923;48.718;9.272;2022-08-19T11:19:56;39.88;;;29.13;;
44248;SDS011;29923;48.718;9.272;2022-08-19T11:22:21;40.88;;;29.52;;
44248;SDS011;29923;48.718;9.272;2022-08-19T11:24:47;37.63;;;29.38;;
44248;SDS011;29923;48.718;9.272;2022-08-19T11:27:12;61.30;;;37.97;;
44248;SDS011;29923;48.718;9.272;2022-08-19T11:29:39;41.85;;;27.73;;
44248;SDS011;29923;48.718;9.272;2022-08-19T11:32:05;37.75;;;28.40;;
44248;SDS011;29923;48.718;9.272;2022-08-19T11:34:33;52.47;;;34.05;;
44248;SDS011;29923;48.718;9.272;2022-08-19T11:37:00;56.05;;;37.60;;
44248;SDS011;29923;48.718;9.272;2022-08-19T11:39:27;45.63;;;32.90;;
44248;SDS011;29923;48.718;9.272;2022-08-19T11:41:55;49.40;;;35.30;;
44248;SDS011;29923;48.718;9.272;2022-08-19T11:44:20;46.30;;;30.80;;
44248;SDS011;29923;48.718;9.272;2022-08-19T11:46:46;47.30;;;34.83;;
44248;SDS011;29923;48.718;9.272;2022-08-19T11:49:12;43.75;;;32.80;;
44248;SDS011;29923;48.718;9.272;2022-08-19T11:51:39;46.50;;;31.73;;
44248;SDS011;29923;48.718;9.272;2022-08-19T11:54:04;40.50;;;30.92;;
44248;SDS011;29923;48.718;9.272;2022-08-19T11:56:30;44.45;;;32.67;;
44248;SDS011;29923;48.718;9.272;2022-08-19T11:58:56;53.38;;;34.88;;
44248;SDS011;29923;48.718;9.272;2022-08-19T12:01:22;42.08;;;32.30;;
44248;SDS011;29923;48.718;9.272;2022-08-19T12:03:50;40.95;;;30.73;;
44248;SDS011;29923;48.718;9.272;2022-08-19T12:06:18;46.63;;;32.15;;
44248;SDS011;29923;48.718;9.272;2022-08-19T12:08:48;57.53;;;37.90;;
44248;SDS011;29923;48.718;9.272;2022-08-19T12:11:13;54.00;;;35.67;;
44248;SDS011;29923;48.718;9.272;2022-08-19T12:13:39;43.78;;;31.23;;
44248;SDS011;29923;48.718;9.272;2022-08-19T12:16:09;59.28;;;39.45;;
44248;SDS011;29923;48.718;9.272;2022-08-19T12:18:37;66.97;;;42.22;;
44248;SDS011;29923;48.718;9.272;2022-08-19T12:21:02;45.17;;;33.65;;
44248;SDS011;29923;48.718;9.272;2022-08-19T12:23:28;47.67;;;32.97;;
44248;SDS011;29923;48.718;9.272;2022-08-19T12:25:54;46.17;;;32.42;;
44248;SDS011;29923;48.718;9.272;2022-08-19T12:28:22;58.25;;;35.47;;
44248;SDS011;29923;48.718;9.272;2022-08-19T12:30:50;67.15;;;39.92;;
44248;SDS011;29923;48.718;9.272;2022-08-19T12:33:17;41.83;;;32.15;;
44248;SDS011;29923;48.718;9.272;2022-08-19T12:35:44;62.35;;;39.97;;
44248;SDS011;29923;48.718;9.272;2022-08-19T12:38:11;44.10;;;32.80;;
44248;SDS011;29923;48.718;9.272;2022-08-19T12:40:37;66.63;;;42.90;;
44248;SDS011;29923;48.718;9.272;2022-08-19T12:43:03;78.72;;;45.83;;
44248;SDS011;29923;48.718;9.272;2022-08-19T12:45:29;58.67;;;36.47;;
44248;SDS011;29923;48.718;9.272;2022-08-19T12:47:54;50.65;;;33.42;;
44248;SDS011;29923;48.718;9.272;2022-08-19T12:50:19;46.83;;;33.92;;
44248;SDS011;29923;48.718;9.272;2022-08-19T12:52:46;49.38;;;36.10;;
44248;SDS011;29923;48.718;9.272;2022-08-19T12:55:12;48.35;;;35.63;;
44248;SDS011;29923;48.718;9.272;2022-08-19T12:57:38;45.33;;;33.28;;
44248;SDS011;29923;48.718;9.272;2022-08-19T13:00:08;50.55;;;34.75;;
44248;SDS011;29923;48.718;9.272;2022-08-19T13:02:36;60.90;;;38.63;;
44248;SDS011;29923;48.718;9.272;2022-08-19T13:05:02;66.07;;;42.08;;
44248;SDS011;29923;48.718;9.272;2022-08-19T13:07:28;52.53;;;36.53;;
44248;SDS011;29923;48.718;9.272;2022-08-19T13:09:55;50.22;;;36.25;;
44248;SDS011;29923;48.718;9.272;2022-08-19T13:12:20;59.08;;;38.05;;
44248;SDS011;29923;48.718;9.272;2022-08-19T13:14:46;54.17;;;37.95;;
44248;SDS011;29923;48.718;9.272;2022-08-19T13:17:14;45.25;;;32.42;;
44248;SDS011;29923;48.718;9.272;2022-08-19T13:19:40;45.08;;;34.33;;
44248;SDS011;29923;48.718;9.272;2022-08-19T13:22:06;50.80;;;36.83;;
44248;SDS011;29923;48.718;9.272;2022-08-19T13:24:31;50.67;;;34.72;;
44248;SDS011;29923;48.718;9.272;2022-08-19T13:26:58;53.92;;;37.60;;
44248;SDS011;29923;48.718;9.272;2022-08-19T13:29:24;61.75;;;39.97;;
44248;SDS011;29923;48.718;9.272;2022-08-19T13:34:52;60.17;;;39.58;;
44248;SDS011;29923;48.718;9.272;2022-08-19T13:37:17;51.83;;;36.00;;
44248;SDS011;29923;48.718;9.272;2022-08-19T13:40:03;48.28;;;36.00;;
44248;SDS011;29923;48.718;9.272;2022-08-19T13:42:29;51.17;;;36.85;;
44248;SDS011;29923;48.718;9.272;2022-08-19T13:44:54;56.00;;;39.22;;
44248;SDS011;29923;48.718;9.272;2022-08-19T13:47:20;48.85;;;35.67;;
44248;SDS011;29923;48.718;9.272;2022-08-19T13:49:45;49.30;;;35.88;;
44248;SDS011;29923;48.718;9.272;2022-08-19T13:52:11;49.47;;;36.42;;
44248;SDS011;29923;48.718;9.272;2022-08-19T13:54:36;49.30;;;36.38;;
44248;SDS011;29923;48.718;9.272;2022-08-19T13:57:01;78.88;;;46.85;;
44248;SDS011;29923;48.718;9.272;2022-08-19T13:59:27;91.53;;;51.42;;
44248;SDS011;29923;48.718;9.272;2022-08-19T14:01:52;89.63;;;50.28;;
44248;SDS011;29923;48.718;9.272;2022-08-19T14:04:22;47.33;;;37.33;;
44248;SDS011;29923;48.718;9.272;2022-08-19T14:06:48;49.22;;;36.63;;
44248;SDS011;29923;48.718;9.272;2022-08-19T14:09:13;47.25;;;35.70;;
44248;SDS011;29923;48.718;9.272;2022-08-19T14:11:38;50.67;;;35.03;;
44248;SDS011;29923;48.718;9.272;2022-08-19T14:14:04;55.00;;;37.53;;
44248;SDS011;29923;48.718;9.272;2022-08-19T14:16:29;53.40;;;38.50;;
44248;SDS011;29923;48.718;9.272;2022-08-19T14:18:55;43.67;;;34.35;;
44248;SDS011;29923;48.718;9.272;2022-08-19T14:21:21;45.40;;;34.85;;
44248;SDS011;29923;48.718;9.272;2022-08-19T14:23:48;41.63;;;32.90;;
44248;SDS011;29923;48.718;9.272;2022-08-19T14:26:15;47.50;;;34.42;;
44248;SDS011;29923;48.718;9.272;2022-08-19T14:28:42;44.65;;;34.28;;
44248;SDS011;29923;48.718;9.272;2022-08-19T14:31:09;46.78;;;33.63;;
44248;SDS011;29923;48.718;9.272;2022-08-19T14:33:44;49.42;;;36.35;;